sensor_id;sensor_type;location;lat;lon;timestamp;P1;durP1;ratioP1;P2;durP2;ratioP2
57233;SDS011;43090;52.604;13.318;2023-05-10T00:02:16;11.90;;;4.22;;
57233;SDS011;43090;52.604;13.318;2023-05-10T01:51:39;9.02;;;5.20;;
57233;SDS011;43090;52.604;13.318;2023-05-10T01:54:10;8.95;;;5.15;;
57233;SDS011;43090;52.604;13.318;2023-05-10T01:56:40;13.13;;;5.20;;
57233;SDS011;43090;52.604;13.318;2023-05-10T01:59:15;12.55;;;5.00;;
57233;SDS011;43090;52.604;13.318;2023-05-10T02:01:44;11.60;;;5.72;;
57233;SDS011;43090;52.604;13.318;2023-05-10T02:04:14;9.30;;;5.95;;
57233;SDS011;43090;52.604;13.318;2023-05-10T02:06:43;11.13;;;5.45;;
57233;SDS011;43090;52.604;13.318;2023-05-10T02:09:14;14.93;;;5.65;;
57233;SDS011;43090;52.604;13.318;2023-05-10T02:11:42;13.02;;;5.95;;
57233;SDS011;43090;52.604;13.318;2023-05-10T02:14:09;13.95;;;5.38;;
57233;SDS011;43090;52.604;13.318;2023-05-10T02:16:37;10.38;;;5.03;;
57233;SDS011;43090;52.604;13.318;2023-05-10T02:19:06;9.68;;;5.82;;
57233;SDS011;43090;52.604;13.318;2023-05-10T02:21:34;10.43;;;5.28;;
57233;SDS011;43090;52.604;13.318;2023-05-10T02:24:05;10.43;;;5.13;;
57233;SDS011;43090;52.604;13.318;2023-05-10T02:26:35;10.00;;;5.15;;
57233;SDS011;43090;52.604;13.318;2023-05-10T02:29:04;13.02;;;4.72;;
57233;SDS011;43090;52.604;13.318;2023-05-10T02:31:32;10.18;;;4.93;;
57233;SDS011;43090;52.604;13.318;2023-05-10T02:34:01;9.20;;;5.13;;
57233;SDS011;43090;52.604;13.318;2023-05-10T02:36:28;8.25;;;4.97;;
57233;SDS011;43090;52.604;13.318;2023-05-10T02:38:55;13.77;;;5.07;;
57233;SDS011;43090;52.604;13.318;2023-05-10T02:41:23;8.52;;;4.53;;
57233;SDS011;43090;52.604;13.318;2023-05-10T02:43:52;11.93;;;4.82;;
57233;SDS011;43090;52.604;13.318;2023-05-10T02:46:23;9.07;;;5.35;;
57233;SDS011;43090;52.604;13.318;2023-05-10T02:48:53;11.15;;;5.15;;
57233;SDS011;43090;52.604;13.318;2023-05-10T02:51:20;10.57;;;5.35;;
57233;SDS011;43090;52.604;13.318;2023-05-10T02:53:53;12.07;;;5.57;;
57233;SDS011;43090;52.604;13.318;2023-05-10T02:56:28;9.93;;;5.38;;
57233;SDS011;43090;52.604;13.318;2023-05-10T02:58:59;8.45;;;5.22;;
57233;SDS011;43090;52.604;13.318;2023-05-10T03:01:25;9.05;;;4.60;;
57233;SDS011;43090;52.604;13.318;2023-05-10T03:03:52;8.75;;;4.40;;
57233;SDS011;43090;52.604;13.318;2023-05-10T03:06:18;11.75;;;4.97;;
57233;SDS011;43090;52.604;13.318;2023-05-10T03:08:45;9.85;;;5.13;;
57233;SDS011;43090;52.604;13.318;2023-05-10T03:11:23;16.73;;;5.50;;
57233;SDS011;43090;52.604;13.318;2023-05-10T03:17:08;10.85;;;4.80;;
57233;SDS011;43090;52.604;13.318;2023-05-10T03:22:30;9.70;;;5.28;;
57233;SDS011;43090;52.604;13.318;2023-05-10T03:24:58;8.63;;;4.85;;
57233;SDS011;43090;52.604;13.318;2023-05-10T03:27:30;13.90;;;4.55;;
57233;SDS011;43090;52.604;13.318;2023-05-10T03:29:57;12.05;;;4.47;;
57233;SDS011;43090;52.604;13.318;2023-05-10T03:32:24;9.80;;;5.07;;
57233;SDS011;43090;52.604;13.318;2023-05-10T03:37:17;8.20;;;4.80;;
57233;SDS011;43090;52.604;13.318;2023-05-10T03:39:43;11.88;;;4.65;;
57233;SDS011;43090;52.604;13.318;2023-05-10T03:42:10;10.35;;;4.82;;
57233;SDS011;43090;52.604;13.318;2023-05-10T03:44:41;9.90;;;4.38;;
57233;SDS011;43090;52.604;13.318;2023-05-10T03:47:08;9.30;;;4.82;;
57233;SDS011;43090;52.604;13.318;2023-05-10T03:52:01;8.57;;;4.50;;
57233;SDS011;43090;52.604;13.318;2023-05-10T03:54:27;9.02;;;4.55;;
57233;SDS011;43090;52.604;13.318;2023-05-10T03:56:54;17.23;;;4.65;;
57233;SDS011;43090;52.604;13.318;2023-05-10T03:59:20;9.38;;;4.47;;
57233;SDS011;43090;52.604;13.318;2023-05-10T04:01:47;12.68;;;4.88;;
57233;SDS011;43090;52.604;13.318;2023-05-10T04:04:13;14.65;;;5.25;;
57233;SDS011;43090;52.604;13.318;2023-05-10T04:06:40;12.75;;;4.60;;
57233;SDS011;43090;52.604;13.318;2023-05-10T04:09:06;7.97;;;4.57;;
57233;SDS011;43090;52.604;13.318;2023-05-10T04:11:34;13.45;;;4.97;;
57233;SDS011;43090;52.604;13.318;2023-05-10T04:14:01;7.63;;;4.07;;
57233;SDS011;43090;52.604;13.318;2023-05-10T04:16:27;10.07;;;4.45;;
57233;SDS011;43090;52.604;13.318;2023-05-10T04:18:54;8.77;;;4.20;;
57233;SDS011;43090;52.604;13.318;2023-05-10T04:21:20;9.70;;;4.72;;
57233;SDS011;43090;52.604;13.318;2023-05-10T04:23:47;7.47;;;4.38;;
57233;SDS011;43090;52.604;13.318;2023-05-10T04:26:13;7.20;;;4.18;;
57233;SDS011;43090;52.604;13.318;2023-05-10T04:28:40;9.43;;;4.20;;
57233;SDS011;43090;52.604;13.318;2023-05-10T04:31:07;7.40;;;4.25;;
57233;SDS011;43090;52.604;13.318;2023-05-10T04:33:45;9.98;;;4.85;;
57233;SDS011;43090;52.604;13.318;2023-05-10T04:36:12;15.38;;;4.75;;
57233;SDS011;43090;52.604;13.318;2023-05-10T04:38:38;7.15;;;3.95;;
57233;SDS011;43090;52.604;13.318;2023-05-10T04:41:06;8.95;;;4.60;;
57233;SDS011;43090;52.604;13.318;2023-05-10T04:43:33;9.07;;;4.57;;
57233;SDS011;43090;52.604;13.318;2023-05-10T04:46:00;18.77;;;5.13;;
57233;SDS011;43090;52.604;13.318;2023-05-10T04:48:27;10.30;;;4.20;;
57233;SDS011;43090;52.604;13.318;2023-05-10T04:53:21;11.25;;;4.47;;
57233;SDS011;43090;52.604;13.318;2023-05-10T04:55:47;8.02;;;3.92;;
57233;SDS011;43090;52.604;13.318;2023-05-10T04:58:14;10.20;;;4.30;;
57233;SDS011;43090;52.604;13.318;2023-05-10T05:00:40;11.23;;;4.72;;
57233;SDS011;43090;52.604;13.318;2023-05-10T05:03:07;12.75;;;4.07;;
57233;SDS011;43090;52.604;13.318;2023-05-10T05:05:34;8.13;;;4.20;;
57233;SDS011;43090;52.604;13.318;2023-05-10T05:08:01;11.27;;;4.25;;
57233;SDS011;43090;52.604;13.318;2023-05-10T05:10:27;10.77;;;4.47;;
57233;SDS011;43090;52.604;13.318;2023-05-10T05:12:54;13.48;;;3.88;;
57233;SDS011;43090;52.604;13.318;2023-05-10T05:15:20;9.20;;;4.13;;
57233;SDS011;43090;52.604;13.318;2023-05-10T05:18:19;11.85;;;4.25;;
57233;SDS011;43090;52.604;13.318;2023-05-10T05:23:12;8.88;;;3.95;;
57233;SDS011;43090;52.604;13.318;2023-05-10T05:25:39;12.35;;;3.85;;
57233;SDS011;43090;52.604;13.318;2023-05-10T05:28:05;10.77;;;5.07;;
57233;SDS011;43090;52.604;13.318;2023-05-10T05:30:32;18.27;;;5.35;;
57233;SDS011;43090;52.604;13.318;2023-05-10T05:32:58;12.40;;;3.58;;
57233;SDS011;43090;52.604;13.318;2023-05-10T05:37:52;10.95;;;3.92;;
57233;SDS011;43090;52.604;13.318;2023-05-10T05:40:18;6.93;;;3.22;;
57233;SDS011;43090;52.604;13.318;2023-05-10T05:42:46;8.55;;;3.45;;
57233;SDS011;43090;52.604;13.318;2023-05-10T05:45:13;10.68;;;4.07;;
57233;SDS011;43090;52.604;13.318;2023-05-10T05:47:40;10.55;;;3.28;;
57233;SDS011;43090;52.604;13.318;2023-05-10T05:50:07;6.70;;;3.17;;
57233;SDS011;43090;52.604;13.318;2023-05-10T05:52:35;5.68;;;3.35;;
57233;SDS011;43090;52.604;13.318;2023-05-10T05:55:02;7.30;;;3.00;;
57233;SDS011;43090;52.604;13.318;2023-05-10T05:57:29;7.30;;;3.45;;
57233;SDS011;43090;52.604;13.318;2023-05-10T05:59:56;7.72;;;3.33;;
57233;SDS011;43090;52.604;13.318;2023-05-10T06:02:23;7.00;;;3.25;;
57233;SDS011;43090;52.604;13.318;2023-05-10T06:04:54;10.52;;;4.07;;
57233;SDS011;43090;52.604;13.318;2023-05-10T06:07:21;7.63;;;3.40;;
57233;SDS011;43090;52.604;13.318;2023-05-10T06:09:47;6.13;;;3.42;;
57233;SDS011;43090;52.604;13.318;2023-05-10T06:12:15;4.93;;;3.28;;
57233;SDS011;43090;52.604;13.318;2023-05-10T06:14:41;8.00;;;3.20;;
57233;SDS011;43090;52.604;13.318;2023-05-10T06:17:08;6.60;;;2.92;;
57233;SDS011;43090;52.604;13.318;2023-05-10T06:19:34;7.93;;;3.53;;
57233;SDS011;43090;52.604;13.318;2023-05-10T06:22:01;7.80;;;2.78;;
57233;SDS011;43090;52.604;13.318;2023-05-10T06:24:28;5.30;;;2.72;;
57233;SDS011;43090;52.604;13.318;2023-05-10T06:26:55;5.32;;;2.70;;
57233;SDS011;43090;52.604;13.318;2023-05-10T06:29:21;9.57;;;3.00;;
57233;SDS011;43090;52.604;13.318;2023-05-10T06:34:17;8.07;;;2.63;;
57233;SDS011;43090;52.604;13.318;2023-05-10T06:36:44;8.20;;;2.63;;
57233;SDS011;43090;52.604;13.318;2023-05-10T06:39:10;5.25;;;2.55;;
57233;SDS011;43090;52.604;13.318;2023-05-10T06:41:40;15.18;;;3.03;;
57233;SDS011;43090;52.604;13.318;2023-05-10T06:44:10;10.18;;;2.85;;
57233;SDS011;43090;52.604;13.318;2023-05-10T06:46:36;14.82;;;2.75;;
57233;SDS011;43090;52.604;13.318;2023-05-10T06:49:03;8.63;;;2.40;;
57233;SDS011;43090;52.604;13.318;2023-05-10T06:51:30;3.67;;;2.40;;
57233;SDS011;43090;52.604;13.318;2023-05-10T06:53:59;5.07;;;2.53;;
57233;SDS011;43090;52.604;13.318;2023-05-10T06:56:26;10.27;;;2.50;;
57233;SDS011;43090;52.604;13.318;2023-05-10T06:58:53;10.07;;;2.78;;
57233;SDS011;43090;52.604;13.318;2023-05-10T07:01:19;6.85;;;2.58;;
57233;SDS011;43090;52.604;13.318;2023-05-10T07:03:46;6.60;;;2.55;;
57233;SDS011;43090;52.604;13.318;2023-05-10T07:06:12;5.05;;;2.45;;
57233;SDS011;43090;52.604;13.318;2023-05-10T07:08:57;10.77;;;2.88;;
57233;SDS011;43090;52.604;13.318;2023-05-10T07:11:24;8.23;;;2.88;;
57233;SDS011;43090;52.604;13.318;2023-05-10T07:16:17;7.47;;;2.47;;
57233;SDS011;43090;52.604;13.318;2023-05-10T07:18:43;8.77;;;2.58;;
57233;SDS011;43090;52.604;13.318;2023-05-10T07:21:10;13.63;;;3.50;;
57233;SDS011;43090;52.604;13.318;2023-05-10T07:23:37;10.93;;;2.45;;
57233;SDS011;43090;52.604;13.318;2023-05-10T07:26:03;14.80;;;2.95;;
57233;SDS011;43090;52.604;13.318;2023-05-10T07:28:35;6.55;;;2.80;;
57233;SDS011;43090;52.604;13.318;2023-05-10T07:31:03;6.95;;;3.03;;
57233;SDS011;43090;52.604;13.318;2023-05-10T07:33:30;4.63;;;2.83;;
57233;SDS011;43090;52.604;13.318;2023-05-10T07:35:57;4.68;;;2.90;;
57233;SDS011;43090;52.604;13.318;2023-05-10T07:38:24;8.63;;;2.75;;
57233;SDS011;43090;52.604;13.318;2023-05-10T07:43:20;7.72;;;2.97;;
57233;SDS011;43090;52.604;13.318;2023-05-10T07:48:14;3.93;;;2.00;;
57233;SDS011;43090;52.604;13.318;2023-05-10T07:53:07;7.00;;;2.03;;
57233;SDS011;43090;52.604;13.318;2023-05-10T07:55:37;10.13;;;2.42;;
57233;SDS011;43090;52.604;13.318;2023-05-10T07:58:06;6.93;;;2.55;;
57233;SDS011;43090;52.604;13.318;2023-05-10T08:00:33;7.97;;;2.58;;
57233;SDS011;43090;52.604;13.318;2023-05-10T08:05:26;4.97;;;2.33;;
57233;SDS011;43090;52.604;13.318;2023-05-10T08:10:20;9.80;;;2.80;;
57233;SDS011;43090;52.604;13.318;2023-05-10T08:12:51;6.43;;;2.38;;
57233;SDS011;43090;52.604;13.318;2023-05-10T08:15:18;10.07;;;2.83;;
57233;SDS011;43090;52.604;13.318;2023-05-10T08:17:45;6.18;;;2.95;;
57233;SDS011;43090;52.604;13.318;2023-05-10T08:20:13;41.72;;;6.93;;
57233;SDS011;43090;52.604;13.318;2023-05-10T08:22:42;57.15;;;6.43;;
57233;SDS011;43090;52.604;13.318;2023-05-10T08:25:09;5.80;;;3.15;;
57233;SDS011;43090;52.604;13.318;2023-05-10T08:30:49;10.45;;;2.47;;
57233;SDS011;43090;52.604;13.318;2023-05-10T08:33:22;7.93;;;2.50;;
57233;SDS011;43090;52.604;13.318;2023-05-10T08:35:49;4.82;;;2.67;;
57233;SDS011;43090;52.604;13.318;2023-05-10T08:38:24;8.25;;;3.03;;
57233;SDS011;43090;52.604;13.318;2023-05-10T08:40:52;7.18;;;2.88;;
57233;SDS011;43090;52.604;13.318;2023-05-10T08:43:22;8.43;;;2.50;;
57233;SDS011;43090;52.604;13.318;2023-05-10T08:45:54;5.38;;;2.30;;
57233;SDS011;43090;52.604;13.318;2023-05-10T08:48:24;7.68;;;2.28;;
57233;SDS011;43090;52.604;13.318;2023-05-10T08:50:55;6.93;;;2.05;;
57233;SDS011;43090;52.604;13.318;2023-05-10T08:53:25;12.43;;;2.28;;
57233;SDS011;43090;52.604;13.318;2023-05-10T08:55:53;7.20;;;2.70;;
57233;SDS011;43090;52.604;13.318;2023-05-10T08:58:20;5.85;;;3.13;;
57233;SDS011;43090;52.604;13.318;2023-05-10T09:00:48;9.32;;;2.53;;
57233;SDS011;43090;52.604;13.318;2023-05-10T09:03:17;11.80;;;2.40;;
57233;SDS011;43090;52.604;13.318;2023-05-10T09:05:45;7.65;;;2.40;;
57233;SDS011;43090;52.604;13.318;2023-05-10T09:08:12;13.85;;;2.97;;
57233;SDS011;43090;52.604;13.318;2023-05-10T09:10:40;7.18;;;2.95;;
57233;SDS011;43090;52.604;13.318;2023-05-10T09:13:14;7.82;;;2.63;;
57233;SDS011;43090;52.604;13.318;2023-05-10T09:15:43;11.55;;;2.45;;
57233;SDS011;43090;52.604;13.318;2023-05-10T09:18:10;13.75;;;2.40;;
57233;SDS011;43090;52.604;13.318;2023-05-10T09:20:37;8.88;;;2.63;;
57233;SDS011;43090;52.604;13.318;2023-05-10T09:23:04;10.90;;;3.03;;
57233;SDS011;43090;52.604;13.318;2023-05-10T09:25:31;6.68;;;2.47;;
57233;SDS011;43090;52.604;13.318;2023-05-10T09:28:01;3.53;;;2.28;;
57233;SDS011;43090;52.604;13.318;2023-05-10T09:30:28;8.13;;;3.03;;
57233;SDS011;43090;52.604;13.318;2023-05-10T09:32:58;10.68;;;2.33;;
57233;SDS011;43090;52.604;13.318;2023-05-10T09:35:30;7.05;;;2.10;;
57233;SDS011;43090;52.604;13.318;2023-05-10T09:37:59;7.97;;;2.28;;
57233;SDS011;43090;52.604;13.318;2023-05-10T09:40:28;3.85;;;2.50;;
57233;SDS011;43090;52.604;13.318;2023-05-10T09:42:57;15.82;;;3.28;;
57233;SDS011;43090;52.604;13.318;2023-05-10T09:45:33;5.85;;;2.33;;
57233;SDS011;43090;52.604;13.318;2023-05-10T09:48:03;8.77;;;2.63;;
57233;SDS011;43090;52.604;13.318;2023-05-10T09:50:33;9.13;;;2.83;;
57233;SDS011;43090;52.604;13.318;2023-05-10T09:53:01;5.25;;;1.95;;
57233;SDS011;43090;52.604;13.318;2023-05-10T09:58:10;7.30;;;2.80;;
57233;SDS011;43090;52.604;13.318;2023-05-10T10:00:40;14.45;;;4.05;;
57233;SDS011;43090;52.604;13.318;2023-05-10T10:03:14;4.13;;;2.40;;
57233;SDS011;43090;52.604;13.318;2023-05-10T10:05:44;6.15;;;2.30;;
57233;SDS011;43090;52.604;13.318;2023-05-10T10:08:11;9.77;;;2.45;;
57233;SDS011;43090;52.604;13.318;2023-05-10T10:10:39;15.27;;;2.50;;
57233;SDS011;43090;52.604;13.318;2023-05-10T10:13:12;4.05;;;2.10;;
57233;SDS011;43090;52.604;13.318;2023-05-10T10:15:39;6.30;;;2.45;;
57233;SDS011;43090;52.604;13.318;2023-05-10T10:18:12;11.57;;;2.55;;
57233;SDS011;43090;52.604;13.318;2023-05-10T10:20:39;10.98;;;2.53;;
57233;SDS011;43090;52.604;13.318;2023-05-10T10:23:07;7.10;;;2.58;;
57233;SDS011;43090;52.604;13.318;2023-05-10T10:25:34;10.75;;;2.80;;
57233;SDS011;43090;52.604;13.318;2023-05-10T10:28:06;5.50;;;2.92;;
57233;SDS011;43090;52.604;13.318;2023-05-10T10:30:43;8.68;;;2.70;;
57233;SDS011;43090;52.604;13.318;2023-05-10T10:33:26;3.67;;;2.38;;
57233;SDS011;43090;52.604;13.318;2023-05-10T10:36:00;6.90;;;2.22;;
57233;SDS011;43090;52.604;13.318;2023-05-10T10:38:54;6.55;;;2.60;;
57233;SDS011;43090;52.604;13.318;2023-05-10T10:49:50;7.75;;;2.80;;
57233;SDS011;43090;52.604;13.318;2023-05-10T10:52:28;5.63;;;2.35;;
57233;SDS011;43090;52.604;13.318;2023-05-10T10:55:07;8.98;;;2.72;;
57233;SDS011;43090;52.604;13.318;2023-05-10T11:02:58;6.40;;;2.15;;
57233;SDS011;43090;52.604;13.318;2023-05-10T11:08:06;5.00;;;2.15;;
57233;SDS011;43090;52.604;13.318;2023-05-10T11:10:35;10.27;;;2.25;;
57233;SDS011;43090;52.604;13.318;2023-05-10T11:13:03;6.00;;;2.95;;
57233;SDS011;43090;52.604;13.318;2023-05-10T11:15:43;6.55;;;2.35;;
57233;SDS011;43090;52.604;13.318;2023-05-10T11:18:23;4.30;;;2.13;;
57233;SDS011;43090;52.604;13.318;2023-05-10T11:20:51;22.23;;;3.10;;
57233;SDS011;43090;52.604;13.318;2023-05-10T11:23:23;7.50;;;2.53;;
57233;SDS011;43090;52.604;13.318;2023-05-10T11:25:55;8.30;;;2.00;;
57233;SDS011;43090;52.604;13.318;2023-05-10T11:28:22;9.05;;;2.30;;
57233;SDS011;43090;52.604;13.318;2023-05-10T11:30:49;3.90;;;2.40;;
57233;SDS011;43090;52.604;13.318;2023-05-10T11:33:16;5.78;;;2.75;;
57233;SDS011;43090;52.604;13.318;2023-05-10T11:35:44;7.63;;;2.30;;
57233;SDS011;43090;52.604;13.318;2023-05-10T11:38:11;7.75;;;2.63;;
57233;SDS011;43090;52.604;13.318;2023-05-10T11:40:39;13.65;;;2.63;;
57233;SDS011;43090;52.604;13.318;2023-05-10T11:43:07;8.35;;;2.40;;
57233;SDS011;43090;52.604;13.318;2023-05-10T11:45:54;3.00;;;2.08;;
57233;SDS011;43090;52.604;13.318;2023-05-10T11:48:55;7.35;;;2.40;;
57233;SDS011;43090;52.604;13.318;2023-05-10T11:51:44;8.57;;;2.35;;
57233;SDS011;43090;52.604;13.318;2023-05-10T11:54:14;3.50;;;2.42;;
57233;SDS011;43090;52.604;13.318;2023-05-10T12:08:10;9.80;;;2.50;;
57233;SDS011;43090;52.604;13.318;2023-05-10T12:11:27;4.75;;;2.30;;
57233;SDS011;43090;52.604;13.318;2023-05-10T12:18:59;8.23;;;2.58;;
57233;SDS011;43090;52.604;13.318;2023-05-10T12:29:13;4.97;;;2.25;;
57233;SDS011;43090;52.604;13.318;2023-05-10T12:31:55;6.57;;;2.47;;
57233;SDS011;43090;52.604;13.318;2023-05-10T12:39:00;5.05;;;2.38;;
57233;SDS011;43090;52.604;13.318;2023-05-10T12:41:29;9.23;;;2.45;;
57233;SDS011;43090;52.604;13.318;2023-05-10T13:03:51;13.85;;;2.60;;
57233;SDS011;43090;52.604;13.318;2023-05-10T13:08:46;47.55;;;3.38;;
57233;SDS011;43090;52.604;13.318;2023-05-10T13:11:19;6.35;;;2.47;;
57233;SDS011;43090;52.604;13.318;2023-05-10T13:13:46;6.40;;;2.33;;
57233;SDS011;43090;52.604;13.318;2023-05-10T13:16:13;6.10;;;2.45;;
57233;SDS011;43090;52.604;13.318;2023-05-10T13:18:44;4.47;;;2.42;;
57233;SDS011;43090;52.604;13.318;2023-05-10T13:26:08;2.97;;;2.47;;
57233;SDS011;43090;52.604;13.318;2023-05-10T13:28:46;9.07;;;2.22;;
57233;SDS011;43090;52.604;13.318;2023-05-10T13:35:46;9.13;;;2.17;;
57233;SDS011;43090;52.604;13.318;2023-05-10T13:38:24;10.02;;;2.63;;
57233;SDS011;43090;52.604;13.318;2023-05-10T13:43:20;8.93;;;2.47;;
57233;SDS011;43090;52.604;13.318;2023-05-10T13:45:48;5.47;;;2.17;;
57233;SDS011;43090;52.604;13.318;2023-05-10T13:50:41;10.13;;;2.05;;
57233;SDS011;43090;52.604;13.318;2023-05-10T13:53:10;4.38;;;1.92;;
57233;SDS011;43090;52.604;13.318;2023-05-10T13:55:37;9.38;;;2.50;;
57233;SDS011;43090;52.604;13.318;2023-05-10T14:01:43;4.53;;;1.98;;
57233;SDS011;43090;52.604;13.318;2023-05-10T14:04:13;3.33;;;2.17;;
57233;SDS011;43090;52.604;13.318;2023-05-10T14:06:39;9.60;;;2.70;;
57233;SDS011;43090;52.604;13.318;2023-05-10T14:09:20;6.00;;;1.65;;
57233;SDS011;43090;52.604;13.318;2023-05-10T14:12:04;5.15;;;2.50;;
57233;SDS011;43090;52.604;13.318;2023-05-10T14:14:31;12.30;;;2.42;;
57233;SDS011;43090;52.604;13.318;2023-05-10T14:16:58;9.05;;;2.30;;
57233;SDS011;43090;52.604;13.318;2023-05-10T14:19:31;4.93;;;2.10;;
57233;SDS011;43090;52.604;13.318;2023-05-10T14:22:00;6.00;;;2.15;;
57233;SDS011;43090;52.604;13.318;2023-05-10T14:24:26;11.82;;;1.90;;
57233;SDS011;43090;52.604;13.318;2023-05-10T14:26:56;4.70;;;1.75;;
57233;SDS011;43090;52.604;13.318;2023-05-10T14:29:22;5.78;;;2.00;;
57233;SDS011;43090;52.604;13.318;2023-05-10T14:31:49;5.53;;;2.50;;
57233;SDS011;43090;52.604;13.318;2023-05-10T14:34:32;9.82;;;2.20;;
57233;SDS011;43090;52.604;13.318;2023-05-10T14:36:58;3.60;;;2.10;;
57233;SDS011;43090;52.604;13.318;2023-05-10T14:41:51;7.80;;;1.98;;
57233;SDS011;43090;52.604;13.318;2023-05-10T14:44:18;5.70;;;2.10;;
57233;SDS011;43090;52.604;13.318;2023-05-10T14:46:45;7.53;;;2.40;;
57233;SDS011;43090;52.604;13.318;2023-05-10T14:49:15;3.72;;;2.05;;
57233;SDS011;43090;52.604;13.318;2023-05-10T14:51:57;7.10;;;1.70;;
57233;SDS011;43090;52.604;13.318;2023-05-10T14:54:34;10.15;;;2.47;;
57233;SDS011;43090;52.604;13.318;2023-05-10T14:59:27;3.33;;;1.77;;
57233;SDS011;43090;52.604;13.318;2023-05-10T15:01:54;4.90;;;2.38;;
57233;SDS011;43090;52.604;13.318;2023-05-10T15:04:22;8.30;;;1.83;;
57233;SDS011;43090;52.604;13.318;2023-05-10T15:06:54;5.45;;;1.90;;
57233;SDS011;43090;52.604;13.318;2023-05-10T15:09:25;6.80;;;1.67;;
57233;SDS011;43090;52.604;13.318;2023-05-10T15:11:54;4.90;;;1.92;;
57233;SDS011;43090;52.604;13.318;2023-05-10T15:14:21;3.85;;;1.85;;
57233;SDS011;43090;52.604;13.318;2023-05-10T15:16:51;6.43;;;2.00;;
57233;SDS011;43090;52.604;13.318;2023-05-10T15:19:24;7.93;;;2.30;;
57233;SDS011;43090;52.604;13.318;2023-05-10T15:24:17;4.82;;;2.03;;
57233;SDS011;43090;52.604;13.318;2023-05-10T15:26:46;5.35;;;2.60;;
57233;SDS011;43090;52.604;13.318;2023-05-10T15:29:13;7.70;;;2.10;;
57233;SDS011;43090;52.604;13.318;2023-05-10T15:31:49;7.47;;;1.90;;
57233;SDS011;43090;52.604;13.318;2023-05-10T15:34:18;6.72;;;2.28;;
57233;SDS011;43090;52.604;13.318;2023-05-10T15:39:40;6.22;;;2.03;;
57233;SDS011;43090;52.604;13.318;2023-05-10T15:42:07;5.75;;;2.25;;
57233;SDS011;43090;52.604;13.318;2023-05-10T15:44:33;7.90;;;2.47;;
57233;SDS011;43090;52.604;13.318;2023-05-10T15:47:01;6.20;;;2.13;;
57233;SDS011;43090;52.604;13.318;2023-05-10T15:49:30;10.27;;;2.05;;
57233;SDS011;43090;52.604;13.318;2023-05-10T15:51:56;6.88;;;2.38;;
57233;SDS011;43090;52.604;13.318;2023-05-10T15:56:49;4.28;;;2.80;;
57233;SDS011;43090;52.604;13.318;2023-05-10T15:59:16;4.70;;;2.25;;
57233;SDS011;43090;52.604;13.318;2023-05-10T16:01:42;9.30;;;2.13;;
57233;SDS011;43090;52.604;13.318;2023-05-10T16:04:09;8.93;;;2.20;;
57233;SDS011;43090;52.604;13.318;2023-05-10T16:06:35;8.57;;;2.20;;
57233;SDS011;43090;52.604;13.318;2023-05-10T16:09:03;15.23;;;2.80;;
57233;SDS011;43090;52.604;13.318;2023-05-10T16:11:30;9.85;;;2.30;;
57233;SDS011;43090;52.604;13.318;2023-05-10T16:13:59;10.25;;;2.53;;
57233;SDS011;43090;52.604;13.318;2023-05-10T16:16:42;7.45;;;2.40;;
57233;SDS011;43090;52.604;13.318;2023-05-10T16:19:35;7.63;;;2.47;;
57233;SDS011;43090;52.604;13.318;2023-05-10T16:22:25;4.40;;;2.33;;
57233;SDS011;43090;52.604;13.318;2023-05-10T16:26:21;6.72;;;1.88;;
57233;SDS011;43090;52.604;13.318;2023-05-10T16:33:14;4.47;;;2.20;;
57233;SDS011;43090;52.604;13.318;2023-05-10T16:43:00;8.98;;;3.63;;
57233;SDS011;43090;52.604;13.318;2023-05-10T16:57:08;7.43;;;4.55;;
57233;SDS011;43090;52.604;13.318;2023-05-10T16:59:35;9.98;;;4.95;;
57233;SDS011;43090;52.604;13.318;2023-05-10T17:02:02;15.23;;;4.63;;
57233;SDS011;43090;52.604;13.318;2023-05-10T17:04:32;10.13;;;4.60;;
57233;SDS011;43090;52.604;13.318;2023-05-10T17:06:59;8.68;;;4.25;;
57233;SDS011;43090;52.604;13.318;2023-05-10T17:11:52;8.65;;;5.45;;
57233;SDS011;43090;52.604;13.318;2023-05-10T17:14:26;6.13;;;4.28;;
57233;SDS011;43090;52.604;13.318;2023-05-10T17:16:55;8.77;;;4.38;;
57233;SDS011;43090;52.604;13.318;2023-05-10T17:19:22;12.32;;;3.97;;
57233;SDS011;43090;52.604;13.318;2023-05-10T17:21:51;7.10;;;4.50;;
57233;SDS011;43090;52.604;13.318;2023-05-10T17:26:44;6.47;;;3.65;;
57233;SDS011;43090;52.604;13.318;2023-05-10T17:29:11;7.60;;;3.90;;
57233;SDS011;43090;52.604;13.318;2023-05-10T17:31:42;6.82;;;4.47;;
57233;SDS011;43090;52.604;13.318;2023-05-10T17:34:11;10.50;;;3.85;;
57233;SDS011;43090;52.604;13.318;2023-05-10T17:36:38;11.20;;;4.32;;
57233;SDS011;43090;52.604;13.318;2023-05-10T17:39:05;10.32;;;3.92;;
57233;SDS011;43090;52.604;13.318;2023-05-10T17:44:27;10.07;;;4.15;;
57233;SDS011;43090;52.604;13.318;2023-05-10T17:47:01;6.88;;;4.13;;
57233;SDS011;43090;52.604;13.318;2023-05-10T17:49:28;6.85;;;4.30;;
57233;SDS011;43090;52.604;13.318;2023-05-10T17:54:24;9.48;;;4.20;;
57233;SDS011;43090;52.604;13.318;2023-05-10T17:56:57;8.90;;;4.25;;
57233;SDS011;43090;52.604;13.318;2023-05-10T17:59:31;7.93;;;4.23;;
57233;SDS011;43090;52.604;13.318;2023-05-10T18:02:06;18.63;;;4.80;;
57233;SDS011;43090;52.604;13.318;2023-05-10T18:07:03;5.93;;;4.05;;
57233;SDS011;43090;52.604;13.318;2023-05-10T18:11:57;5.45;;;3.95;;
57233;SDS011;43090;52.604;13.318;2023-05-10T18:14:29;9.90;;;3.80;;
57233;SDS011;43090;52.604;13.318;2023-05-10T18:17:06;12.27;;;4.68;;
57233;SDS011;43090;52.604;13.318;2023-05-10T18:19:34;11.27;;;4.53;;
57233;SDS011;43090;52.604;13.318;2023-05-10T18:22:01;7.85;;;4.18;;
57233;SDS011;43090;52.604;13.318;2023-05-10T18:24:28;9.52;;;5.05;;
57233;SDS011;43090;52.604;13.318;2023-05-10T18:27:01;16.95;;;5.47;;
57233;SDS011;43090;52.604;13.318;2023-05-10T18:29:37;10.75;;;4.75;;
57233;SDS011;43090;52.604;13.318;2023-05-10T18:32:13;6.97;;;4.40;;
57233;SDS011;43090;52.604;13.318;2023-05-10T18:37:06;7.72;;;3.97;;
57233;SDS011;43090;52.604;13.318;2023-05-10T18:39:35;6.88;;;3.47;;
57233;SDS011;43090;52.604;13.318;2023-05-10T18:42:02;6.30;;;4.00;;
57233;SDS011;43090;52.604;13.318;2023-05-10T18:44:30;8.85;;;4.50;;
57233;SDS011;43090;52.604;13.318;2023-05-10T18:46:57;9.30;;;4.43;;
57233;SDS011;43090;52.604;13.318;2023-05-10T18:49:24;8.50;;;3.83;;
57233;SDS011;43090;52.604;13.318;2023-05-10T18:51:55;7.28;;;4.05;;
57233;SDS011;43090;52.604;13.318;2023-05-10T18:54:25;6.43;;;4.25;;
57233;SDS011;43090;52.604;13.318;2023-05-10T18:56:52;10.60;;;4.03;;
57233;SDS011;43090;52.604;13.318;2023-05-10T18:59:19;7.30;;;4.10;;
57233;SDS011;43090;52.604;13.318;2023-05-10T19:01:45;7.28;;;4.53;;
57233;SDS011;43090;52.604;13.318;2023-05-10T19:04:15;11.10;;;4.75;;
57233;SDS011;43090;52.604;13.318;2023-05-10T19:06:42;10.10;;;4.55;;
57233;SDS011;43090;52.604;13.318;2023-05-10T19:09:09;7.80;;;4.50;;
57233;SDS011;43090;52.604;13.318;2023-05-10T19:11:39;7.90;;;4.38;;
57233;SDS011;43090;52.604;13.318;2023-05-10T19:14:06;8.48;;;4.43;;
57233;SDS011;43090;52.604;13.318;2023-05-10T19:19:00;7.78;;;4.90;;
57233;SDS011;43090;52.604;13.318;2023-05-10T19:21:27;7.03;;;4.45;;
57233;SDS011;43090;52.604;13.318;2023-05-10T19:23:54;5.25;;;4.35;;
57233;SDS011;43090;52.604;13.318;2023-05-10T19:26:23;10.98;;;4.35;;
57233;SDS011;43090;52.604;13.318;2023-05-10T19:28:50;8.77;;;4.03;;
57233;SDS011;43090;52.604;13.318;2023-05-10T19:31:18;6.85;;;4.85;;
57233;SDS011;43090;52.604;13.318;2023-05-10T19:33:45;10.65;;;4.65;;
57233;SDS011;43090;52.604;13.318;2023-05-10T19:36:12;7.80;;;4.85;;